Time;durP1;ratioP1;P1;durP2;ratioP2;P2;SDS_P1;SDS_P2;PMS_P1;PMS_P2;Temp;Humidity;BMP_temperature;BMP_pressure;BME280_temperature;BME280_humidity;BME280_pressure;Samples;Min_cycle;Max_cycle;Signal;HPM_P1;HPM_P2
2023/09/03 00:01:48;;;;;;;76.53;44.55;;;;;;;;;;4992248;28;20425;-61
2023/09/03 00:04:15;;;;;;;68.20;42.22;;;;;;;;;;4995751;28;20424;-62
2023/09/03 00:06:43;;;;;;;72.03;43.70;;;;;;;;;;5001669;28;20421;-61
2023/09/03 00:09:10;;;;;;;62.17;40.30;;;;;;;;;;4992420;28;20418;-61
2023/09/03 00:11:37;;;;;;;65.32;39.85;;;;;;;;;;5002805;28;20444;-61
2023/09/03 00:14:04;;;;;;;68.18;42.10;;;;;;;;;;4994914;28;20435;-62
2023/09/03 00:16:31;;;;;;;63.38;39.78;;;;;;;;;;4990587;28;20904;-62
2023/09/03 00:18:58;;;;;;;67.57;40.78;;;;;;;;;;4985346;28;20418;-62
2023/09/03 00:21:26;;;;;;;71.00;42.97;;;;;;;;;;4989035;28;20420;-61
2023/09/03 00:23:54;;;;;;;74.88;43.30;;;;;;;;;;4992627;28;20426;-61
2023/09/03 00:26:24;;;;;;;66.13;41.55;;;;;;;;;;4991781;28;20412;-60
2023/09/03 00:28:51;;;;;;;61.28;39.53;;;;;;;;;;4988543;28;20905;-61
2023/09/03 00:31:18;;;;;;;67.53;41.67;;;;;;;;;;4992168;28;20491;-61
2023/09/03 00:33:45;;;;;;;71.90;42.70;;;;;;;;;;4992002;28;20422;-60
2023/09/03 00:36:13;;;;;;;67.30;41.50;;;;;;;;;;4978064;28;20453;-60
2023/09/03 00:38:41;;;;;;;67.35;41.83;;;;;;;;;;4987724;28;20506;-62
2023/09/03 00:41:09;;;;;;;71.35;42.25;;;;;;;;;;4988550;28;20415;-60
2023/09/03 00:43:36;;;;;;;78.80;46.08;;;;;;;;;;4993831;28;20419;-63
2023/09/03 00:46:05;;;;;;;83.07;45.53;;;;;;;;;;4980606;28;20420;-62
2023/09/03 00:48:32;;;;;;;83.43;44.80;;;;;;;;;;4989907;28;20468;-62
2023/09/03 00:51:00;;;;;;;90.20;46.67;;;;;;;;;;4986938;28;20427;-62
2023/09/03 00:53:29;;;;;;;91.75;45.47;;;;;;;;;;4992513;28;20768;-62
2023/09/03 00:55:56;;;;;;;103.00;48.17;;;;;;;;;;4985484;28;21041;-62
2023/09/03 00:58:24;;;;;;;93.20;47.58;;;;;;;;;;4991930;28;20417;-62
2023/09/03 01:00:52;;;;;;;106.43;52.30;;;;;;;;;;4986487;28;20415;-62
2023/09/03 01:03:20;;;;;;;113.47;53.90;;;;;;;;;;4997487;28;20420;-61
2023/09/03 01:05:47;;;;;;;93.55;48.88;;;;;;;;;;4986779;28;20417;-61
2023/09/03 01:08:14;;;;;;;89.57;48.20;;;;;;;;;;4995397;28;20786;-62
2023/09/03 01:10:43;;;;;;;92.78;48.25;;;;;;;;;;4984603;28;20793;-61
2023/09/03 01:13:13;;;;;;;104.78;47.30;;;;;;;;;;4993305;28;20416;-62
2023/09/03 01:15:45;;;;;;;96.65;47.85;;;;;;;;;;4983280;28;20531;-62
2023/09/03 01:18:15;;;;;;;81.53;45.25;;;;;;;;;;4993928;28;20833;-61
2023/09/03 01:20:44;;;;;;;84.05;46.03;;;;;;;;;;4984260;28;20410;-62
2023/09/03 01:23:22;;;;;;;83.65;44.38;;;;;;;;;;4993216;28;20446;-62
2023/09/03 01:26:07;;;;;;;80.50;44.22;;;;;;;;;;4990139;28;20418;-62
2023/09/03 01:28:38;;;;;;;81.38;44.80;;;;;;;;;;4989472;28;20451;-60
2023/09/03 01:31:11;;;;;;;87.03;44.03;;;;;;;;;;4988023;28;20509;-60
2023/09/03 01:33:38;;;;;;;88.63;45.27;;;;;;;;;;4991927;28;20418;-62
2023/09/03 01:36:06;;;;;;;85.13;43.65;;;;;;;;;;4987180;28;20466;-62
2023/09/03 01:38:33;;;;;;;80.95;42.80;;;;;;;;;;4991097;28;20418;-62
2023/09/03 01:41:01;;;;;;;81.20;43.47;;;;;;;;;;4986660;28;20502;-61
2023/09/03 01:43:28;;;;;;;76.75;41.55;;;;;;;;;;4990184;28;20421;-62
2023/09/03 01:45:58;;;;;;;85.20;44.80;;;;;;;;;;4985894;28;20436;-62
2023/09/03 01:48:30;;;;;;;76.07;42.85;;;;;;;;;;4987826;28;20425;-62
2023/09/03 01:51:03;;;;;;;80.50;43.97;;;;;;;;;;4985673;28;20951;-62
2023/09/03 01:53:35;;;;;;;82.55;43.22;;;;;;;;;;4985804;28;20761;-61
2023/09/03 01:56:04;;;;;;;79.25;43.75;;;;;;;;;;4991369;28;20469;-62
2023/09/03 01:58:33;;;;;;;83.28;43.00;;;;;;;;;;4992338;28;20410;-62
2023/09/03 02:01:01;;;;;;;88.25;44.20;;;;;;;;;;4990337;28;20434;-62
2023/09/03 02:03:29;;;;;;;85.13;43.25;;;;;;;;;;4984675;28;20414;-62
2023/09/03 02:05:56;;;;;;;77.83;41.83;;;;;;;;;;4991064;28;20407;-62
2023/09/03 02:08:23;;;;;;;88.80;44.58;;;;;;;;;;4986690;28;20416;-62
2023/09/03 02:10:50;;;;;;;91.60;46.30;;;;;;;;;;4991097;28;20418;-62
2023/09/03 02:13:17;;;;;;;86.07;43.80;;;;;;;;;;4984980;28;20420;-60
2023/09/03 02:15:44;;;;;;;87.43;43.80;;;;;;;;;;4985848;28;20449;-62
2023/09/03 02:18:12;;;;;;;91.07;42.97;;;;;;;;;;4983274;28;20416;-61
2023/09/03 02:20:39;;;;;;;77.45;41.55;;;;;;;;;;4995145;28;20418;-62
2023/09/03 02:23:06;;;;;;;80.72;42.60;;;;;;;;;;4983588;28;20416;-62
2023/09/03 02:25:33;;;;;;;86.60;43.53;;;;;;;;;;4995425;28;20424;-62
2023/09/03 02:28:01;;;;;;;95.32;45.72;;;;;;;;;;4982578;28;20429;-62
2023/09/03 02:30:28;;;;;;;92.15;44.78;;;;;;;;;;4995353;28;20748;-62
2023/09/03 02:32:55;;;;;;;90.97;44.13;;;;;;;;;;4989469;28;20420;-61
2023/09/03 02:35:23;;;;;;;94.57;45.75;;;;;;;;;;4993545;28;20423;-62
2023/09/03 02:37:50;;;;;;;95.60;45.08;;;;;;;;;;4982741;28;20446;-62
2023/09/03 02:40:17;;;;;;;88.60;43.80;;;;;;;;;;4992651;28;20412;-60
2023/09/03 02:42:44;;;;;;;78.05;41.13;;;;;;;;;;4988310;28;20753;-61
2023/09/03 02:45:11;;;;;;;89.65;44.42;;;;;;;;;;4991116;28;20423;-62
2023/09/03 02:47:38;;;;;;;111.60;48.27;;;;;;;;;;4987259;28;20409;-61
2023/09/03 02:50:06;;;;;;;106.95;47.53;;;;;;;;;;4993991;28;20420;-62
2023/09/03 02:52:34;;;;;;;98.03;46.83;;;;;;;;;;4991956;28;20441;-60
2023/09/03 02:55:02;;;;;;;115.72;51.28;;;;;;;;;;4993655;28;20427;-62
2023/09/03 02:57:29;;;;;;;117.72;52.05;;;;;;;;;;4990660;28;20421;-62
2023/09/03 02:59:56;;;;;;;116.97;50.97;;;;;;;;;;4993550;28;20418;-62
2023/09/03 03:02:23;;;;;;;110.07;49.42;;;;;;;;;;4989202;28;20426;-62
2023/09/03 03:04:50;;;;;;;90.40;44.75;;;;;;;;;;4993759;28;20425;-62
2023/09/03 03:07:17;;;;;;;84.03;41.58;;;;;;;;;;4993804;28;20754;-62
2023/09/03 03:09:49;;;;;;;82.93;41.60;;;;;;;;;;4994671;28;20410;-62
2023/09/03 03:12:16;;;;;;;80.03;42.60;;;;;;;;;;4991978;28;20436;-62
2023/09/03 03:14:44;;;;;;;88.50;44.75;;;;;;;;;;4992546;28;20407;-61
2023/09/03 03:17:11;;;;;;;90.40;44.03;;;;;;;;;;4987118;28;20842;-62
2023/09/03 03:19:38;;;;;;;98.07;46.13;;;;;;;;;;4994273;28;20415;-62
2023/09/03 03:22:05;;;;;;;97.18;46.97;;;;;;;;;;4989217;28;20446;-62
2023/09/03 03:24:32;;;;;;;104.88;48.58;;;;;;;;;;4991975;28;20405;-62
2023/09/03 03:27:01;;;;;;;110.28;50.83;;;;;;;;;;4989303;28;20886;-62
2023/09/03 03:29:29;;;;;;;129.43;54.03;;;;;;;;;;4992044;28;20914;-62
2023/09/03 03:31:56;;;;;;;127.15;54.25;;;;;;;;;;4988961;28;20466;-61
2023/09/03 03:34:23;;;;;;;151.07;58.83;;;;;;;;;;4991359;28;20909;-62
2023/09/03 03:36:50;;;;;;;139.43;55.95;;;;;;;;;;4995395;28;20430;-62
2023/09/03 03:39:17;;;;;;;117.65;52.83;;;;;;;;;;4990153;28;20788;-62
2023/09/03 03:41:44;;;;;;;109.68;52.28;;;;;;;;;;4994781;28;20424;-62
2023/09/03 03:44:12;;;;;;;131.52;54.60;;;;;;;;;;4991658;28;20425;-62
2023/09/03 03:46:40;;;;;;;140.38;55.92;;;;;;;;;;4987449;28;20892;-62
2023/09/03 03:49:07;;;;;;;184.05;58.65;;;;;;;;;;4988346;28;20413;-62
2023/09/03 03:51:34;;;;;;;190.52;56.88;;;;;;;;;;4993450;28;20415;-62
2023/09/03 03:54:04;;;;;;;567.28;72.40;;;;;;;;;;4988052;28;20437;-62
2023/09/03 03:56:31;;;;;;;768.08;82.80;;;;;;;;;;4993033;28;20929;-62
2023/09/03 03:58:58;;;;;;;253.90;57.13;;;;;;;;;;4987375;28;20414;-62
2023/09/03 04:01:26;;;;;;;120.85;51.85;;;;;;;;;;4997496;28;20716;-62
2023/09/03 04:03:54;;;;;;;104.07;49.17;;;;;;;;;;4987546;28;20901;-60
2023/09/03 04:06:21;;;;;;;99.50;48.38;;;;;;;;;;4997184;28;20982;-62
2023/09/03 04:08:48;;;;;;;97.75;45.03;;;;;;;;;;4987468;28;20418;-62
2023/09/03 04:11:18;;;;;;;89.95;45.38;;;;;;;;;;4994945;28;20440;-61
2023/09/03 04:13:45;;;;;;;84.78;44.58;;;;;;;;;;4986409;28;20433;-62
2023/09/03 04:16:13;;;;;;;81.22;42.63;;;;;;;;;;4988907;28;20416;-62
2023/09/03 04:18:42;;;;;;;124.27;45.33;;;;;;;;;;4986586;28;20975;-62
2023/09/03 04:21:09;;;;;;;143.70;47.10;;;;;;;;;;4992099;28;20427;-62
2023/09/03 04:23:36;;;;;;;158.90;49.72;;;;;;;;;;4991672;28;20417;-62
2023/09/03 04:26:04;;;;;;;201.32;55.38;;;;;;;;;;4993610;28;20415;-61
2023/09/03 04:28:31;;;;;;;581.17;73.03;;;;;;;;;;4990622;28;20448;-61
2023/09/03 04:31:00;;;;;;;374.13;64.70;;;;;;;;;;4990106;28;20403;-62
2023/09/03 04:33:27;;;;;;;594.92;71.55;;;;;;;;;;4991137;28;20411;-61
2023/09/03 04:35:57;;;;;;;1003.45;91.47;;;;;;;;;;4993689;28;20418;-61
2023/09/03 04:38:24;;;;;;;317.43;62.33;;;;;;;;;;4987771;28;20437;-61
2023/09/03 04:40:51;;;;;;;812.50;81.57;;;;;;;;;;4993597;28;20418;-61
2023/09/03 04:43:18;;;;;;;939.97;85.57;;;;;;;;;;4985647;28;20891;-61
2023/09/03 04:45:49;;;;;;;810.22;80.43;;;;;;;;;;4990080;28;20442;-61
2023/09/03 04:48:16;;;;;;;1001.58;85.15;;;;;;;;;;4984400;28;20423;-61
2023/09/03 04:50:43;;;;;;;263.30;50.13;;;;;;;;;;4993036;28;20946;-61
2023/09/03 04:53:12;;;;;;;119.15;44.53;;;;;;;;;;4988725;28;20407;-61
2023/09/03 04:55:40;;;;;;;99.22;43.20;;;;;;;;;;4986366;28;20498;-61
2023/09/03 04:58:07;;;;;;;245.32;49.28;;;;;;;;;;4982812;28;20942;-61
2023/09/03 05:00:34;;;;;;;100.38;43.05;;;;;;;;;;4982581;28;20461;-61
2023/09/03 05:03:04;;;;;;;236.93;50.10;;;;;;;;;;4985580;28;20412;-61
2023/09/03 05:05:31;;;;;;;503.33;62.63;;;;;;;;;;4989028;28;20778;-61
2023/09/03 05:07:58;;;;;;;445.83;61.42;;;;;;;;;;4984172;28;20426;-61
2023/09/03 05:10:27;;;;;;;237.52;53.47;;;;;;;;;;4987063;28;20412;-61
2023/09/03 05:12:54;;;;;;;249.98;53.35;;;;;;;;;;4983913;28;20478;-61
2023/09/03 05:15:21;;;;;;;696.47;76.27;;;;;;;;;;4985953;28;20480;-61
2023/09/03 05:17:48;;;;;;;844.65;80.78;;;;;;;;;;4986988;28;20450;-61
2023/09/03 05:20:15;;;;;;;621.97;73.20;;;;;;;;;;4984507;28;20419;-61
2023/09/03 05:22:42;;;;;;;748.00;78.10;;;;;;;;;;4989396;28;20490;-61
2023/09/03 05:25:09;;;;;;;917.03;84.47;;;;;;;;;;4983757;28;20412;-61
2023/09/03 05:27:37;;;;;;;1059.60;95.78;;;;;;;;;;4989607;28;20406;-61
2023/09/03 05:30:06;;;;;;;1098.63;98.97;;;;;;;;;;4983809;28;20428;-61
2023/09/03 05:32:33;;;;;;;1044.03;96.85;;;;;;;;;;4985525;28;20473;-61
2023/09/03 05:35:00;;;;;;;922.25;88.57;;;;;;;;;;4984151;28;20407;-61
2023/09/03 05:37:27;;;;;;;751.78;83.85;;;;;;;;;;4984944;28;20436;-58
2023/09/03 05:39:54;;;;;;;991.33;95.70;;;;;;;;;;4983319;28;20414;-60
2023/09/03 05:42:21;;;;;;;940.53;90.13;;;;;;;;;;4986820;28;20503;-62
2023/09/03 05:44:49;;;;;;;815.85;87.18;;;;;;;;;;4984853;28;20422;-61
2023/09/03 05:47:18;;;;;;;984.78;92.28;;;;;;;;;;4986806;28;20422;-61
2023/09/03 05:49:46;;;;;;;682.92;81.05;;;;;;;;;;4986622;28;20907;-61
2023/09/03 05:52:13;;;;;;;737.65;83.03;;;;;;;;;;4991695;28;20426;-62
2023/09/03 05:54:40;;;;;;;746.78;83.18;;;;;;;;;;4987304;28;20790;-61
2023/09/03 05:57:07;;;;;;;762.08;83.50;;;;;;;;;;4990395;28;20434;-61
2023/09/03 05:59:34;;;;;;;836.13;86.00;;;;;;;;;;4986456;28;20446;-61
2023/09/03 06:02:02;;;;;;;695.42;80.97;;;;;;;;;;4989571;28;20426;-61
2023/09/03 06:04:29;;;;;;;644.03;75.95;;;;;;;;;;4985926;28;20479;-62
2023/09/03 06:06:58;;;;;;;683.30;78.53;;;;;;;;;;4989452;28;21337;-61
2023/09/03 06:09:25;;;;;;;594.20;71.43;;;;;;;;;;4986835;28;20416;-60
2023/09/03 06:11:52;;;;;;;680.43;76.40;;;;;;;;;;4993975;28;20422;-61
2023/09/03 06:14:19;;;;;;;656.05;71.47;;;;;;;;;;4986216;28;20424;-61
2023/09/03 06:16:46;;;;;;;772.50;76.18;;;;;;;;;;4986768;28;20418;-62
2023/09/03 06:19:15;;;;;;;520.60;64.15;;;;;;;;;;4982593;28;20910;-61
2023/09/03 06:21:42;;;;;;;665.55;70.57;;;;;;;;;;4993646;28;20880;-62
2023/09/03 06:24:09;;;;;;;554.33;67.82;;;;;;;;;;4981320;28;20423;-62
2023/09/03 06:26:36;;;;;;;686.33;74.28;;;;;;;;;;4988743;28;20516;-62
2023/09/03 06:29:03;;;;;;;777.65;80.20;;;;;;;;;;4981686;28;20420;-62
2023/09/03 06:31:30;;;;;;;670.83;75.82;;;;;;;;;;4993060;28;20799;-61
2023/09/03 06:33:57;;;;;;;768.30;83.30;;;;;;;;;;4987016;28;20413;-61
2023/09/03 06:36:26;;;;;;;421.33;66.60;;;;;;;;;;4986553;28;20425;-61
2023/09/03 06:38:53;;;;;;;516.78;67.20;;;;;;;;;;4984909;28;20448;-61
2023/09/03 06:41:20;;;;;;;496.08;65.28;;;;;;;;;;4987699;28;20443;-61
2023/09/03 06:43:47;;;;;;;403.65;59.15;;;;;;;;;;4987237;28;20879;-61
2023/09/03 06:46:14;;;;;;;289.25;56.70;;;;;;;;;;4984629;28;20421;-62
2023/09/03 06:48:41;;;;;;;153.52;54.90;;;;;;;;;;4985695;28;20416;-61
2023/09/03 06:51:08;;;;;;;362.55;58.97;;;;;;;;;;4987195;28;20421;-61
2023/09/03 06:53:36;;;;;;;360.88;58.15;;;;;;;;;;4986544;28;20417;-61
2023/09/03 06:56:03;;;;;;;127.80;47.88;;;;;;;;;;4988305;28;20430;-61
2023/09/03 06:58:30;;;;;;;74.70;46.00;;;;;;;;;;4991896;28;20534;-62
2023/09/03 07:00:57;;;;;;;80.53;44.03;;;;;;;;;;4979069;28;20423;-62
2023/09/03 07:03:24;;;;;;;79.00;46.22;;;;;;;;;;4987687;28;20908;-61
2023/09/03 07:05:51;;;;;;;100.35;46.25;;;;;;;;;;4985461;28;20414;-62
2023/09/03 07:08:18;;;;;;;112.85;51.55;;;;;;;;;;4983262;28;20415;-62
2023/09/03 07:10:47;;;;;;;89.43;51.28;;;;;;;;;;4984272;28;20423;-62
2023/09/03 07:13:14;;;;;;;72.93;46.83;;;;;;;;;;4981827;28;20441;-62
2023/09/03 07:15:41;;;;;;;71.65;46.90;;;;;;;;;;4985085;28;20415;-61
2023/09/03 07:18:08;;;;;;;85.30;50.92;;;;;;;;;;4988651;28;20438;-61
2023/09/03 07:20:35;;;;;;;94.20;50.75;;;;;;;;;;4989048;28;20420;-61
2023/09/03 07:23:02;;;;;;;97.88;53.65;;;;;;;;;;4995693;28;20422;-61
2023/09/03 07:25:30;;;;;;;101.40;52.57;;;;;;;;;;4987292;28;20426;-61
2023/09/03 07:27:58;;;;;;;130.18;54.35;;;;;;;;;;4986820;28;20892;-59
2023/09/03 07:30:26;;;;;;;118.07;56.60;;;;;;;;;;4979349;28;20443;-60
2023/09/03 07:32:53;;;;;;;116.43;55.38;;;;;;;;;;4992123;28;20515;-61
2023/09/03 07:35:20;;;;;;;104.35;54.28;;;;;;;;;;4988600;28;20424;-61
2023/09/03 07:37:47;;;;;;;105.45;55.08;;;;;;;;;;4993478;28;20429;-61
2023/09/03 07:40:14;;;;;;;111.32;56.10;;;;;;;;;;4986801;28;20428;-62
2023/09/03 07:42:41;;;;;;;114.63;56.42;;;;;;;;;;4990380;28;20414;-62
2023/09/03 07:45:10;;;;;;;109.07;56.70;;;;;;;;;;4994622;28;20426;-62
2023/09/03 07:47:37;;;;;;;120.93;59.83;;;;;;;;;;4992586;28;20880;-61
2023/09/03 07:50:05;;;;;;;107.40;57.78;;;;;;;;;;4990113;28;20421;-60
2023/09/03 07:52:32;;;;;;;104.20;55.22;;;;;;;;;;4990537;28;20544;-60
2023/09/03 07:54:59;;;;;;;100.97;54.83;;;;;;;;;;4989296;28;20891;-60
2023/09/03 07:57:27;;;;;;;98.18;54.53;;;;;;;;;;4988278;28;20432;-59
2023/09/03 07:59:54;;;;;;;85.50;50.47;;;;;;;;;;4996778;28;20417;-59
2023/09/03 08:02:23;;;;;;;73.40;47.63;;;;;;;;;;4991186;28;20431;-59
2023/09/03 08:04:50;;;;;;;74.30;47.67;;;;;;;;;;4997636;28;20929;-59
2023/09/03 08:07:17;;;;;;;70.63;45.60;;;;;;;;;;4995612;28;20423;-65
2023/09/03 08:09:44;;;;;;;71.20;44.38;;;;;;;;;;4999804;28;20428;-62
2023/09/03 08:12:11;;;;;;;69.87;45.47;;;;;;;;;;5002319;28;20441;-62
2023/09/03 08:14:39;;;;;;;74.85;47.08;;;;;;;;;;4989403;28;20410;-61
2023/09/03 08:17:06;;;;;;;68.53;45.80;;;;;;;;;;4992992;28;20512;-59
2023/09/03 08:19:35;;;;;;;71.00;45.10;;;;;;;;;;4988632;28;20432;-59
2023/09/03 08:22:02;;;;;;;80.00;47.03;;;;;;;;;;4998680;28;20417;-62
2023/09/03 08:24:29;;;;;;;74.03;45.63;;;;;;;;;;4989580;28;20423;-62
2023/09/03 08:26:58;;;;;;;76.90;46.80;;;;;;;;;;4994596;28;20418;-62
2023/09/03 08:29:25;;;;;;;76.07;48.07;;;;;;;;;;4986225;28;20416;-61
2023/09/03 08:31:52;;;;;;;69.65;45.08;;;;;;;;;;4994046;28;20426;-60
2023/09/03 08:34:19;;;;;;;72.32;46.85;;;;;;;;;;4995294;28;20426;-61
2023/09/03 08:36:47;;;;;;;66.93;44.13;;;;;;;;;;5007984;28;20418;-62
2023/09/03 08:39:14;;;;;;;73.00;46.90;;;;;;;;;;4986852;28;20785;-59
2023/09/03 08:41:41;;;;;;;68.10;43.92;;;;;;;;;;4989129;28;20419;-59
2023/09/03 08:44:13;;;;;;;65.95;43.00;;;;;;;;;;4984843;28;20414;-59
2023/09/03 08:46:42;;;;;;;63.05;42.08;;;;;;;;;;4987665;28;21048;-59
2023/09/03 08:49:10;;;;;;;63.25;43.03;;;;;;;;;;4988095;28;20425;-60
2023/09/03 08:51:38;;;;;;;60.92;41.90;;;;;;;;;;4982995;28;20789;-61
2023/09/03 08:54:06;;;;;;;62.83;42.90;;;;;;;;;;4984684;28;20423;-60
2023/09/03 08:56:34;;;;;;;64.20;42.23;;;;;;;;;;4984767;28;20420;-60
2023/09/03 08:59:01;;;;;;;67.43;44.00;;;;;;;;;;4983943;28;20460;-60
2023/09/03 09:01:31;;;;;;;57.85;39.90;;;;;;;;;;4989415;28;20423;-62
2023/09/03 09:04:01;;;;;;;61.47;41.35;;;;;;;;;;4987744;28;20418;-67
2023/09/03 09:06:29;;;;;;;59.13;40.88;;;;;;;;;;4984297;28;20420;-67
2023/09/03 09:08:56;;;;;;;50.45;35.92;;;;;;;;;;4986951;28;20422;-66
2023/09/03 09:11:26;;;;;;;54.43;37.73;;;;;;;;;;4983678;28;20438;-65
2023/09/03 09:13:55;;;;;;;52.17;36.55;;;;;;;;;;4987881;28;20427;-64
2023/09/03 09:16:51;;;;;;;53.33;36.70;;;;;;;;;;4984744;28;20482;-66
2023/09/03 09:19:18;;;;;;;57.60;38.28;;;;;;;;;;4984847;28;20437;-69
2023/09/03 09:21:45;;;;;;;53.25;36.83;;;;;;;;;;4984333;28;20418;-66
2023/09/03 09:24:12;;;;;;;48.72;34.60;;;;;;;;;;4984868;28;20422;-66
2023/09/03 09:26:40;;;;;;;55.70;37.25;;;;;;;;;;4983217;28;20414;-66
2023/09/03 09:29:07;;;;;;;49.55;35.92;;;;;;;;;;4984948;28;20423;-66
2023/09/03 09:31:35;;;;;;;48.50;33.63;;;;;;;;;;4982991;28;20431;-68
2023/09/03 09:34:03;;;;;;;49.75;35.17;;;;;;;;;;4988181;28;20418;-68
2023/09/03 09:36:31;;;;;;;51.20;35.70;;;;;;;;;;4985011;28;20917;-68
2023/09/03 09:39:06;;;;;;;49.65;34.42;;;;;;;;;;4987590;28;20493;-67
2023/09/03 09:41:37;;;;;;;46.30;33.83;;;;;;;;;;4981589;28;20961;-67
2023/09/03 09:44:08;;;;;;;51.13;34.65;;;;;;;;;;4985692;28;20425;-67
2023/09/03 09:46:35;;;;;;;43.23;30.80;;;;;;;;;;4985612;28;20414;-68
2023/09/03 09:49:03;;;;;;;38.60;31.27;;;;;;;;;;4986948;28;20422;-66
2023/09/03 09:51:31;;;;;;;42.10;30.95;;;;;;;;;;4983158;28;20423;-66
2023/09/03 09:53:58;;;;;;;40.33;30.17;;;;;;;;;;4986988;28;20411;-67
2023/09/03 09:56:29;;;;;;;37.03;28.50;;;;;;;;;;4984051;28;20430;-67
2023/09/03 09:58:57;;;;;;;38.17;29.10;;;;;;;;;;4984561;28;20489;-67
2023/09/03 10:01:27;;;;;;;34.83;26.48;;;;;;;;;;4983025;28;20418;-67
2023/09/03 10:03:54;;;;;;;30.17;23.42;;;;;;;;;;4986551;28;20426;-60
2023/09/03 10:06:22;;;;;;;28.83;21.25;;;;;;;;;;4985237;28;20436;-67
2023/09/03 10:08:51;;;;;;;28.30;21.25;;;;;;;;;;4986494;28;20411;-64
2023/09/03 10:11:18;;;;;;;20.80;16.40;;;;;;;;;;4982019;28;20417;-62
2023/09/03 10:13:45;;;;;;;23.30;17.90;;;;;;;;;;4990907;28;21026;-64
2023/09/03 10:16:12;;;;;;;25.15;19.23;;;;;;;;;;4981694;28;20445;-64
2023/09/03 10:18:41;;;;;;;23.60;19.58;;;;;;;;;;4995338;28;20536;-64
2023/09/03 10:21:09;;;;;;;21.95;18.77;;;;;;;;;;4989656;28;20418;-63
2023/09/03 10:23:41;;;;;;;24.45;19.48;;;;;;;;;;4988495;28;20441;-61
2023/09/03 10:26:10;;;;;;;26.05;19.08;;;;;;;;;;4985890;28;20488;-62
2023/09/03 10:28:40;;;;;;;23.43;18.10;;;;;;;;;;4987791;28;20416;-61
2023/09/03 10:31:08;;;;;;;19.63;16.77;;;;;;;;;;4990075;28;20782;-61
2023/09/03 10:33:35;;;;;;;20.27;16.13;;;;;;;;;;4986569;28;20419;-61
2023/09/03 10:36:14;;;;;;;24.05;18.15;;;;;;;;;;4991432;28;20418;-62
2023/09/03 10:38:41;;;;;;;20.85;16.75;;;;;;;;;;4990053;28;20434;-61
2023/09/03 10:41:18;;;;;;;21.27;16.33;;;;;;;;;;4990344;28;20484;-61
2023/09/03 10:43:46;;;;;;;18.98;15.70;;;;;;;;;;4993262;28;20410;-62
2023/09/03 10:46:13;;;;;;;19.30;16.05;;;;;;;;;;4984761;28;20943;-62
2023/09/03 10:48:40;;;;;;;18.55;15.32;;;;;;;;;;4986691;28;20412;-61
2023/09/03 10:51:07;;;;;;;17.48;13.70;;;;;;;;;;4993151;28;20477;-62
2023/09/03 10:53:39;;;;;;;15.75;13.30;;;;;;;;;;4993210;28;20723;-60
2023/09/03 10:56:06;;;;;;;16.97;13.20;;;;;;;;;;5001933;28;20416;-60
2023/09/03 10:58:33;;;;;;;16.70;13.88;;;;;;;;;;5002066;28;20424;-60
2023/09/03 11:01:17;;;;;;;16.70;13.73;;;;;;;;;;5004993;28;20419;-61
2023/09/03 11:03:47;;;;;;;15.45;12.40;;;;;;;;;;4985175;28;20416;-61
2023/09/03 11:06:18;;;;;;;15.43;12.45;;;;;;;;;;4992965;28;20481;-60
2023/09/03 11:08:46;;;;;;;15.68;12.05;;;;;;;;;;4982109;28;20437;-60
2023/09/03 11:11:20;;;;;;;13.93;12.13;;;;;;;;;;4994286;28;20785;-62
2023/09/03 11:13:51;;;;;;;12.27;9.35;;;;;;;;;;4995734;28;20470;-62
2023/09/03 11:16:18;;;;;;;13.85;10.82;;;;;;;;;;4987666;28;20802;-63
2023/09/03 11:18:49;;;;;;;13.00;10.27;;;;;;;;;;4994076;28;21134;-62
2023/09/03 11:21:16;;;;;;;11.90;10.32;;;;;;;;;;4997937;28;20495;-63
2023/09/03 11:23:58;;;;;;;11.40;8.35;;;;;;;;;;5004485;28;20409;-56
2023/09/03 11:26:26;;;;;;;9.33;7.30;;;;;;;;;;4989454;28;20775;-61
2023/09/03 11:28:53;;;;;;;7.75;6.82;;;;;;;;;;4996981;28;20917;-62
2023/09/03 11:31:20;;;;;;;9.55;6.03;;;;;;;;;;4989674;28;20416;-59
2023/09/03 11:33:48;;;;;;;7.00;5.37;;;;;;;;;;4995865;28;20417;-61
2023/09/03 11:36:15;;;;;;;7.35;5.10;;;;;;;;;;4999098;28;20494;-62
2023/09/03 11:38:42;;;;;;;7.70;5.57;;;;;;;;;;5000448;28;20425;-61
2023/09/03 11:41:09;;;;;;;7.68;5.50;;;;;;;;;;4998428;28;20418;-62
2023/09/03 11:43:39;;;;;;;4.72;4.18;;;;;;;;;;4996754;28;20427;-60
2023/09/03 11:46:13;;;;;;;4.75;3.92;;;;;;;;;;4990744;28;20414;-60
2023/09/03 11:48:40;;;;;;;3.95;3.45;;;;;;;;;;4997706;28;20422;-60
2023/09/03 11:51:08;;;;;;;4.07;3.00;;;;;;;;;;4992643;28;20418;-60
2023/09/03 11:53:42;;;;;;;4.07;3.30;;;;;;;;;;5011034;28;20783;-61
2023/09/03 11:56:11;;;;;;;4.20;3.35;;;;;;;;;;4984937;28;20420;-60
2023/09/03 11:58:40;;;;;;;4.32;3.50;;;;;;;;;;5011050;28;20427;-60
2023/09/03 12:01:07;;;;;;;5.22;4.10;;;;;;;;;;4992440;28;20414;-60
2023/09/03 12:03:34;;;;;;;5.43;4.45;;;;;;;;;;5004018;28;20419;-60
2023/09/03 12:06:04;;;;;;;5.17;4.10;;;;;;;;;;4999407;28;20416;-61
2023/09/03 12:08:32;;;;;;;4.15;3.40;;;;;;;;;;4994083;28;20424;-61
2023/09/03 12:10:59;;;;;;;4.03;3.10;;;;;;;;;;4999250;28;20472;-62
2023/09/03 12:13:33;;;;;;;4.37;3.13;;;;;;;;;;4988653;28;20422;-62
2023/09/03 12:16:06;;;;;;;5.30;3.95;;;;;;;;;;4981406;28;20426;-63
2023/09/03 12:18:33;;;;;;;5.50;4.20;;;;;;;;;;4984407;28;20492;-61
2023/09/03 12:21:00;;;;;;;4.32;3.60;;;;;;;;;;4984378;28;20414;-62
2023/09/03 12:23:27;;;;;;;4.80;3.30;;;;;;;;;;4979201;28;20441;-59
2023/09/03 12:25:54;;;;;;;4.43;3.10;;;;;;;;;;4989475;28;20468;-61
2023/09/03 12:28:32;;;;;;;4.10;3.10;;;;;;;;;;4989126;28;20428;-61
2023/09/03 12:31:00;;;;;;;3.20;2.90;;;;;;;;;;4984701;28;20449;-63
2023/09/03 12:33:44;;;;;;;3.90;2.72;;;;;;;;;;4990405;28;20418;-59
2023/09/03 12:36:12;;;;;;;3.03;2.15;;;;;;;;;;4997993;28;20498;-61
2023/09/03 12:38:48;;;;;;;3.85;2.90;;;;;;;;;;4982122;28;20834;-61
2023/09/03 12:41:15;;;;;;;3.30;2.20;;;;;;;;;;4994164;28;20484;-61
2023/09/03 12:43:42;;;;;;;2.38;2.10;;;;;;;;;;4990487;28;20418;-61
2023/09/03 12:46:09;;;;;;;3.03;2.28;;;;;;;;;;4986984;28;20889;-61
2023/09/03 12:48:38;;;;;;;2.93;2.43;;;;;;;;;;4986477;28;20476;-61
2023/09/03 12:51:05;;;;;;;3.90;2.83;;;;;;;;;;4997437;28;20433;-62
2023/09/03 12:53:32;;;;;;;4.30;3.58;;;;;;;;;;4987222;28;20624;-62
2023/09/03 12:55:59;;;;;;;4.40;3.38;;;;;;;;;;4995688;28;20418;-61
2023/09/03 12:58:26;;;;;;;5.13;3.30;;;;;;;;;;4984747;28;20934;-62
2023/09/03 13:00:53;;;;;;;3.88;3.15;;;;;;;;;;4989829;28;20434;-62
2023/09/03 13:03:20;;;;;;;3.65;3.20;;;;;;;;;;4983166;28;20974;-61
2023/09/03 13:05:49;;;;;;;4.00;3.20;;;;;;;;;;4989461;28;20426;-62
2023/09/03 13:08:16;;;;;;;4.47;3.38;;;;;;;;;;4983081;28;20423;-62
2023/09/03 13:10:43;;;;;;;4.38;3.53;;;;;;;;;;4993208;28;20740;-62
2023/09/03 13:13:11;;;;;;;5.00;3.03;;;;;;;;;;4991999;28;20498;-62
2023/09/03 13:15:39;;;;;;;4.75;3.53;;;;;;;;;;4984120;28;20431;-62
2023/09/03 13:18:06;;;;;;;5.32;4.07;;;;;;;;;;4995208;28;20486;-62
2023/09/03 13:20:33;;;;;;;6.13;4.68;;;;;;;;;;4985547;28;20434;-61
2023/09/03 13:23:02;;;;;;;7.05;4.93;;;;;;;;;;4981732;28;20442;-61
2023/09/03 13:25:29;;;;;;;6.00;4.50;;;;;;;;;;4989945;28;20418;-61
2023/09/03 13:27:56;;;;;;;5.85;4.90;;;;;;;;;;4984780;28;20422;-62
2023/09/03 13:30:23;;;;;;;4.95;3.72;;;;;;;;;;4995269;28;20439;-62
2023/09/03 13:32:50;;;;;;;5.50;3.83;;;;;;;;;;4984485;28;20414;-62
2023/09/03 13:35:17;;;;;;;6.18;3.83;;;;;;;;;;4986518;28;20425;-61
2023/09/03 13:37:44;;;;;;;4.95;3.40;;;;;;;;;;4983366;28;20510;-62
2023/09/03 13:40:13;;;;;;;4.80;3.30;;;;;;;;;;4997457;28;20437;-61
2023/09/03 13:42:40;;;;;;;3.80;3.38;;;;;;;;;;4990890;28;20433;-62
2023/09/03 13:45:08;;;;;;;6.20;4.75;;;;;;;;;;4987204;28;20426;-61
2023/09/03 13:47:35;;;;;;;5.93;4.80;;;;;;;;;;4980850;28;20483;-62
2023/09/03 13:50:02;;;;;;;5.47;4.38;;;;;;;;;;4982920;28;20418;-64
2023/09/03 13:52:29;;;;;;;5.32;4.72;;;;;;;;;;4989973;28;20469;-62
2023/09/03 13:54:56;;;;;;;6.45;4.70;;;;;;;;;;4988688;28;20610;-61
2023/09/03 13:57:26;;;;;;;5.72;5.03;;;;;;;;;;4981374;28;20432;-62
2023/09/03 13:59:54;;;;;;;6.60;5.15;;;;;;;;;;4989477;28;20431;-62
2023/09/03 14:02:22;;;;;;;5.72;4.82;;;;;;;;;;4982840;28;20477;-62
2023/09/03 14:04:51;;;;;;;5.77;4.40;;;;;;;;;;4983321;28;20414;-62
2023/09/03 14:07:18;;;;;;;5.07;4.57;;;;;;;;;;4980561;28;20477;-62
2023/09/03 14:09:45;;;;;;;5.82;4.93;;;;;;;;;;4985300;28;20426;-63
2023/09/03 14:12:12;;;;;;;6.88;4.57;;;;;;;;;;4986291;28;20901;-63
2023/09/03 14:14:40;;;;;;;6.03;5.20;;;;;;;;;;4987322;28;20768;-64
2023/09/03 14:17:07;;;;;;;6.18;5.55;;;;;;;;;;4990154;28;20410;-62
2023/09/03 14:19:34;;;;;;;7.28;6.13;;;;;;;;;;4986473;28;20428;-62
2023/09/03 14:22:04;;;;;;;7.55;5.90;;;;;;;;;;4982225;28;20440;-63
2023/09/03 14:24:34;;;;;;;7.30;5.60;;;;;;;;;;4987784;28;20422;-61